sensor_id;sensor_type;location;lat;lon;timestamp;P1;durP1;ratioP1;P2;durP2;ratioP2
10116;SDS011;5098;48.792;9.012;2023-04-24T00:01:37;1.30;;;0.97;;
10116;SDS011;5098;48.792;9.012;2023-04-24T00:04:04;2.00;;;0.90;;
10116;SDS011;5098;48.792;9.012;2023-04-24T00:06:32;1.13;;;0.93;;
10116;SDS011;5098;48.792;9.012;2023-04-24T00:09:01;0.70;;;0.60;;
10116;SDS011;5098;48.792;9.012;2023-04-24T00:11:28;2.17;;;1.00;;
10116;SDS011;5098;48.792;9.012;2023-04-24T00:13:55;2.60;;;1.13;;
10116;SDS011;5098;48.792;9.012;2023-04-24T00:16:21;2.60;;;1.20;;
10116;SDS011;5098;48.792;9.012;2023-04-24T00:18:48;1.43;;;1.00;;
10116;SDS011;5098;48.792;9.012;2023-04-24T00:21:14;2.20;;;1.73;;
10116;SDS011;5098;48.792;9.012;2023-04-24T00:23:43;1.07;;;0.97;;
10116;SDS011;5098;48.792;9.012;2023-04-24T00:26:10;1.20;;;1.10;;
10116;SDS011;5098;48.792;9.012;2023-04-24T00:28:36;2.20;;;1.13;;
10116;SDS011;5098;48.792;9.012;2023-04-24T00:31:02;1.10;;;0.90;;
10116;SDS011;5098;48.792;9.012;2023-04-24T00:33:28;0.83;;;0.83;;
10116;SDS011;5098;48.792;9.012;2023-04-24T00:35:54;1.23;;;0.70;;
10116;SDS011;5098;48.792;9.012;2023-04-24T00:38:20;1.13;;;0.80;;
10116;SDS011;5098;48.792;9.012;2023-04-24T00:40:47;1.53;;;0.90;;
10116;SDS011;5098;48.792;9.012;2023-04-24T00:43:14;1.10;;;0.77;;
10116;SDS011;5098;48.792;9.012;2023-04-24T00:45:40;2.10;;;1.10;;
10116;SDS011;5098;48.792;9.012;2023-04-24T00:48:07;1.10;;;0.83;;
10116;SDS011;5098;48.792;9.012;2023-04-24T00:50:33;0.97;;;0.87;;
10116;SDS011;5098;48.792;9.012;2023-04-24T00:53:01;2.50;;;0.80;;
10116;SDS011;5098;48.792;9.012;2023-04-24T00:55:27;0.80;;;0.70;;
10116;SDS011;5098;48.792;9.012;2023-04-24T00:57:53;7.20;;;1.10;;
10116;SDS011;5098;48.792;9.012;2023-04-24T01:00:21;1.60;;;0.80;;
10116;SDS011;5098;48.792;9.012;2023-04-24T01:02:47;3.03;;;1.10;;
10116;SDS011;5098;48.792;9.012;2023-04-24T01:05:14;1.37;;;1.27;;
10116;SDS011;5098;48.792;9.012;2023-04-24T01:07:43;2.33;;;1.37;;
10116;SDS011;5098;48.792;9.012;2023-04-24T01:10:10;1.80;;;1.00;;
10116;SDS011;5098;48.792;9.012;2023-04-24T01:12:37;2.17;;;1.13;;
10116;SDS011;5098;48.792;9.012;2023-04-24T01:15:03;1.17;;;0.77;;
10116;SDS011;5098;48.792;9.012;2023-04-24T01:17:30;2.17;;;1.17;;
10116;SDS011;5098;48.792;9.012;2023-04-24T01:19:57;2.53;;;1.00;;
10116;SDS011;5098;48.792;9.012;2023-04-24T01:22:24;1.00;;;0.80;;
10116;SDS011;5098;48.792;9.012;2023-04-24T01:24:51;1.80;;;1.03;;
10116;SDS011;5098;48.792;9.012;2023-04-24T01:27:17;0.83;;;0.80;;
10116;SDS011;5098;48.792;9.012;2023-04-24T01:29:43;1.70;;;0.90;;
10116;SDS011;5098;48.792;9.012;2023-04-24T01:32:09;1.80;;;0.93;;
10116;SDS011;5098;48.792;9.012;2023-04-24T01:34:35;1.00;;;0.73;;
10116;SDS011;5098;48.792;9.012;2023-04-24T01:37:01;1.67;;;0.83;;
10116;SDS011;5098;48.792;9.012;2023-04-24T01:39:28;1.10;;;0.90;;
10116;SDS011;5098;48.792;9.012;2023-04-24T01:41:54;1.27;;;0.90;;
10116;SDS011;5098;48.792;9.012;2023-04-24T01:44:20;3.60;;;0.97;;
10116;SDS011;5098;48.792;9.012;2023-04-24T01:46:46;1.43;;;0.90;;
10116;SDS011;5098;48.792;9.012;2023-04-24T01:49:13;2.10;;;1.07;;
10116;SDS011;5098;48.792;9.012;2023-04-24T01:51:39;0.87;;;0.60;;
10116;SDS011;5098;48.792;9.012;2023-04-24T01:54:05;1.67;;;1.17;;
10116;SDS011;5098;48.792;9.012;2023-04-24T01:56:31;1.17;;;0.90;;
10116;SDS011;5098;48.792;9.012;2023-04-24T01:59:00;2.50;;;1.10;;
10116;SDS011;5098;48.792;9.012;2023-04-24T02:01:29;1.53;;;0.93;;
10116;SDS011;5098;48.792;9.012;2023-04-24T02:03:58;1.33;;;1.20;;
10116;SDS011;5098;48.792;9.012;2023-04-24T02:06:24;1.87;;;1.00;;
10116;SDS011;5098;48.792;9.012;2023-04-24T02:08:50;0.90;;;0.90;;
10116;SDS011;5098;48.792;9.012;2023-04-24T02:11:17;3.33;;;1.10;;
10116;SDS011;5098;48.792;9.012;2023-04-24T02:13:43;0.97;;;0.87;;
10116;SDS011;5098;48.792;9.012;2023-04-24T02:16:09;2.57;;;1.17;;
10116;SDS011;5098;48.792;9.012;2023-04-24T02:18:35;1.13;;;1.00;;
10116;SDS011;5098;48.792;9.012;2023-04-24T02:21:01;1.83;;;1.20;;
10116;SDS011;5098;48.792;9.012;2023-04-24T02:23:28;0.80;;;0.80;;
10116;SDS011;5098;48.792;9.012;2023-04-24T02:25:54;1.23;;;0.90;;
10116;SDS011;5098;48.792;9.012;2023-04-24T02:28:20;1.43;;;1.00;;
10116;SDS011;5098;48.792;9.012;2023-04-24T02:30:46;1.57;;;1.00;;
10116;SDS011;5098;48.792;9.012;2023-04-24T02:33:12;2.47;;;1.07;;
10116;SDS011;5098;48.792;9.012;2023-04-24T02:35:38;1.67;;;0.83;;
10116;SDS011;5098;48.792;9.012;2023-04-24T02:38:04;2.10;;;1.07;;
10116;SDS011;5098;48.792;9.012;2023-04-24T02:40:30;1.43;;;1.33;;
10116;SDS011;5098;48.792;9.012;2023-04-24T02:42:57;1.80;;;1.70;;
10116;SDS011;5098;48.792;9.012;2023-04-24T02:45:23;1.00;;;0.90;;
10116;SDS011;5098;48.792;9.012;2023-04-24T02:47:49;0.90;;;0.70;;
10116;SDS011;5098;48.792;9.012;2023-04-24T02:50:15;0.77;;;0.77;;
10116;SDS011;5098;48.792;9.012;2023-04-24T02:52:41;3.13;;;1.20;;
10116;SDS011;5098;48.792;9.012;2023-04-24T02:55:07;1.40;;;1.03;;
10116;SDS011;5098;48.792;9.012;2023-04-24T02:57:33;1.80;;;1.37;;
10116;SDS011;5098;48.792;9.012;2023-04-24T03:00:00;3.70;;;1.27;;
10116;SDS011;5098;48.792;9.012;2023-04-24T03:02:26;1.60;;;1.40;;
10116;SDS011;5098;48.792;9.012;2023-04-24T03:04:52;3.43;;;1.73;;
10116;SDS011;5098;48.792;9.012;2023-04-24T03:07:18;2.07;;;0.93;;
10116;SDS011;5098;48.792;9.012;2023-04-24T03:09:45;1.17;;;1.07;;
10116;SDS011;5098;48.792;9.012;2023-04-24T03:12:12;2.90;;;1.17;;
10116;SDS011;5098;48.792;9.012;2023-04-24T03:14:38;3.13;;;1.20;;
10116;SDS011;5098;48.792;9.012;2023-04-24T03:17:04;1.03;;;0.80;;
10116;SDS011;5098;48.792;9.012;2023-04-24T03:19:30;1.17;;;0.90;;
10116;SDS011;5098;48.792;9.012;2023-04-24T03:21:56;0.83;;;0.80;;
10116;SDS011;5098;48.792;9.012;2023-04-24T03:24:22;2.83;;;1.40;;
10116;SDS011;5098;48.792;9.012;2023-04-24T03:26:48;2.40;;;1.30;;
10116;SDS011;5098;48.792;9.012;2023-04-24T03:29:14;2.50;;;1.20;;
10116;SDS011;5098;48.792;9.012;2023-04-24T03:31:40;2.37;;;1.20;;
10116;SDS011;5098;48.792;9.012;2023-04-24T03:34:06;2.10;;;1.03;;
10116;SDS011;5098;48.792;9.012;2023-04-24T03:36:32;5.23;;;1.30;;
10116;SDS011;5098;48.792;9.012;2023-04-24T03:38:58;1.17;;;1.07;;
10116;SDS011;5098;48.792;9.012;2023-04-24T03:41:24;1.60;;;1.30;;
10116;SDS011;5098;48.792;9.012;2023-04-24T03:43:50;2.07;;;1.50;;
10116;SDS011;5098;48.792;9.012;2023-04-24T03:46:16;1.03;;;0.97;;
10116;SDS011;5098;48.792;9.012;2023-04-24T03:48:42;1.50;;;1.00;;
10116;SDS011;5098;48.792;9.012;2023-04-24T03:51:08;1.60;;;1.30;;
10116;SDS011;5098;48.792;9.012;2023-04-24T03:53:35;1.53;;;1.10;;
10116;SDS011;5098;48.792;9.012;2023-04-24T03:56:01;2.20;;;0.87;;
10116;SDS011;5098;48.792;9.012;2023-04-24T03:58:27;3.40;;;1.03;;
10116;SDS011;5098;48.792;9.012;2023-04-24T04:00:53;4.43;;;1.57;;
10116;SDS011;5098;48.792;9.012;2023-04-24T04:03:19;2.30;;;1.10;;
10116;SDS011;5098;48.792;9.012;2023-04-24T04:05:45;3.80;;;1.10;;
10116;SDS011;5098;48.792;9.012;2023-04-24T04:08:11;1.73;;;0.90;;
10116;SDS011;5098;48.792;9.012;2023-04-24T04:10:37;2.30;;;1.70;;
10116;SDS011;5098;48.792;9.012;2023-04-24T04:13:03;4.73;;;1.13;;
10116;SDS011;5098;48.792;9.012;2023-04-24T04:15:31;2.47;;;1.50;;
10116;SDS011;5098;48.792;9.012;2023-04-24T04:17:57;1.23;;;1.13;;
10116;SDS011;5098;48.792;9.012;2023-04-24T04:20:23;4.40;;;1.10;;
10116;SDS011;5098;48.792;9.012;2023-04-24T04:22:49;2.23;;;1.27;;
10116;SDS011;5098;48.792;9.012;2023-04-24T04:25:15;2.33;;;1.20;;
10116;SDS011;5098;48.792;9.012;2023-04-24T04:27:44;1.97;;;1.20;;
10116;SDS011;5098;48.792;9.012;2023-04-24T04:30:10;2.57;;;1.30;;
10116;SDS011;5098;48.792;9.012;2023-04-24T04:32:37;2.70;;;1.10;;
10116;SDS011;5098;48.792;9.012;2023-04-24T04:35:03;1.67;;;1.00;;
10116;SDS011;5098;48.792;9.012;2023-04-24T04:37:30;1.90;;;1.27;;
10116;SDS011;5098;48.792;9.012;2023-04-24T04:39:59;1.47;;;1.33;;
10116;SDS011;5098;48.792;9.012;2023-04-24T04:42:26;1.77;;;1.47;;
10116;SDS011;5098;48.792;9.012;2023-04-24T04:44:53;3.60;;;1.20;;
10116;SDS011;5098;48.792;9.012;2023-04-24T04:47:20;1.83;;;1.63;;
10116;SDS011;5098;48.792;9.012;2023-04-24T04:49:48;1.80;;;1.43;;
10116;SDS011;5098;48.792;9.012;2023-04-24T04:52:16;1.60;;;1.50;;
10116;SDS011;5098;48.792;9.012;2023-04-24T04:54:42;1.60;;;1.50;;
10116;SDS011;5098;48.792;9.012;2023-04-24T04:57:08;1.97;;;1.77;;
10116;SDS011;5098;48.792;9.012;2023-04-24T04:59:34;1.77;;;1.30;;
10116;SDS011;5098;48.792;9.012;2023-04-24T05:02:00;1.80;;;1.70;;
10116;SDS011;5098;48.792;9.012;2023-04-24T05:04:26;2.17;;;1.80;;
10116;SDS011;5098;48.792;9.012;2023-04-24T05:06:52;1.80;;;1.50;;
10116;SDS011;5098;48.792;9.012;2023-04-24T05:09:18;2.83;;;1.97;;
10116;SDS011;5098;48.792;9.012;2023-04-24T05:11:45;1.83;;;1.60;;
10116;SDS011;5098;48.792;9.012;2023-04-24T05:14:11;1.58;;;1.40;;
10116;SDS011;5098;48.792;9.012;2023-04-24T05:16:42;2.20;;;1.50;;
10116;SDS011;5098;48.792;9.012;2023-04-24T05:19:08;2.20;;;1.13;;
10116;SDS011;5098;48.792;9.012;2023-04-24T05:21:36;7.90;;;4.57;;
10116;SDS011;5098;48.792;9.012;2023-04-24T05:24:04;7.97;;;5.07;;
10116;SDS011;5098;48.792;9.012;2023-04-24T05:26:30;7.00;;;5.80;;
10116;SDS011;5098;48.792;9.012;2023-04-24T05:28:56;5.90;;;4.03;;
10116;SDS011;5098;48.792;9.012;2023-04-24T05:31:22;2.80;;;2.57;;
10116;SDS011;5098;48.792;9.012;2023-04-24T05:33:48;2.60;;;2.00;;
10116;SDS011;5098;48.792;9.012;2023-04-24T05:36:15;1.70;;;1.60;;
10116;SDS011;5098;48.792;9.012;2023-04-24T05:38:41;2.47;;;2.20;;
10116;SDS011;5098;48.792;9.012;2023-04-24T05:41:07;2.33;;;2.13;;
10116;SDS011;5098;48.792;9.012;2023-04-24T05:43:33;2.00;;;1.67;;
10116;SDS011;5098;48.792;9.012;2023-04-24T05:45:59;2.40;;;2.00;;
10116;SDS011;5098;48.792;9.012;2023-04-24T05:48:25;2.80;;;1.90;;
10116;SDS011;5098;48.792;9.012;2023-04-24T05:50:51;2.97;;;2.50;;
10116;SDS011;5098;48.792;9.012;2023-04-24T05:53:17;3.10;;;2.70;;
10116;SDS011;5098;48.792;9.012;2023-04-24T05:55:43;2.53;;;2.30;;
10116;SDS011;5098;48.792;9.012;2023-04-24T05:58:10;2.30;;;2.10;;
10116;SDS011;5098;48.792;9.012;2023-04-24T06:00:36;2.33;;;2.10;;
10116;SDS011;5098;48.792;9.012;2023-04-24T06:03:05;1.70;;;1.60;;
10116;SDS011;5098;48.792;9.012;2023-04-24T06:05:32;2.40;;;2.20;;
10116;SDS011;5098;48.792;9.012;2023-04-24T06:07:58;2.90;;;2.33;;
10116;SDS011;5098;48.792;9.012;2023-04-24T06:10:24;2.07;;;1.87;;
10116;SDS011;5098;48.792;9.012;2023-04-24T06:12:50;1.90;;;1.80;;
10116;SDS011;5098;48.792;9.012;2023-04-24T06:15:16;1.60;;;1.50;;
10116;SDS011;5098;48.792;9.012;2023-04-24T06:17:42;2.30;;;2.10;;
10116;SDS011;5098;48.792;9.012;2023-04-24T06:20:09;2.43;;;1.57;;
10116;SDS011;5098;48.792;9.012;2023-04-24T06:22:36;1.93;;;1.43;;
10116;SDS011;5098;48.792;9.012;2023-04-24T06:25:02;3.60;;;2.17;;
10116;SDS011;5098;48.792;9.012;2023-04-24T06:27:28;3.93;;;2.00;;
10116;SDS011;5098;48.792;9.012;2023-04-24T06:29:54;2.70;;;1.40;;
10116;SDS011;5098;48.792;9.012;2023-04-24T06:32:21;2.10;;;1.63;;
10116;SDS011;5098;48.792;9.012;2023-04-24T06:34:47;2.37;;;1.57;;
10116;SDS011;5098;48.792;9.012;2023-04-24T06:37:14;2.87;;;1.93;;
10116;SDS011;5098;48.792;9.012;2023-04-24T06:39:41;1.93;;;1.83;;
10116;SDS011;5098;48.792;9.012;2023-04-24T06:42:07;2.50;;;1.50;;
10116;SDS011;5098;48.792;9.012;2023-04-24T06:44:34;2.10;;;1.37;;
10116;SDS011;5098;48.792;9.012;2023-04-24T06:47:05;5.37;;;1.93;;
10116;SDS011;5098;48.792;9.012;2023-04-24T06:49:32;1.77;;;1.67;;
10116;SDS011;5098;48.792;9.012;2023-04-24T06:51:58;2.47;;;1.90;;
10116;SDS011;5098;48.792;9.012;2023-04-24T06:54:24;2.17;;;1.97;;
10116;SDS011;5098;48.792;9.012;2023-04-24T06:56:50;3.03;;;1.70;;
10116;SDS011;5098;48.792;9.012;2023-04-24T06:59:17;1.60;;;1.50;;
10116;SDS011;5098;48.792;9.012;2023-04-24T07:01:43;3.00;;;2.13;;
10116;SDS011;5098;48.792;9.012;2023-04-24T07:04:09;3.77;;;1.83;;
10116;SDS011;5098;48.792;9.012;2023-04-24T07:06:36;1.90;;;1.80;;
10116;SDS011;5098;48.792;9.012;2023-04-24T07:09:04;2.63;;;1.90;;
10116;SDS011;5098;48.792;9.012;2023-04-24T07:11:30;2.33;;;2.13;;
10116;SDS011;5098;48.792;9.012;2023-04-24T07:13:56;4.77;;;2.00;;
10116;SDS011;5098;48.792;9.012;2023-04-24T07:16:22;5.53;;;1.97;;
10116;SDS011;5098;48.792;9.012;2023-04-24T07:18:48;3.90;;;1.73;;
10116;SDS011;5098;48.792;9.012;2023-04-24T07:21:14;2.57;;;1.80;;
10116;SDS011;5098;48.792;9.012;2023-04-24T07:23:40;2.00;;;1.80;;
10116;SDS011;5098;48.792;9.012;2023-04-24T07:26:07;1.43;;;1.23;;
10116;SDS011;5098;48.792;9.012;2023-04-24T07:28:33;4.60;;;1.50;;
10116;SDS011;5098;48.792;9.012;2023-04-24T07:30:59;4.90;;;1.70;;
10116;SDS011;5098;48.792;9.012;2023-04-24T07:33:28;1.80;;;1.60;;
10116;SDS011;5098;48.792;9.012;2023-04-24T07:35:54;2.50;;;1.40;;
10116;SDS011;5098;48.792;9.012;2023-04-24T07:38:21;1.43;;;1.23;;
10116;SDS011;5098;48.792;9.012;2023-04-24T07:40:47;2.03;;;1.40;;
10116;SDS011;5098;48.792;9.012;2023-04-24T07:43:14;1.30;;;1.20;;
10116;SDS011;5098;48.792;9.012;2023-04-24T07:45:40;2.93;;;1.10;;
10116;SDS011;5098;48.792;9.012;2023-04-24T07:48:06;2.30;;;1.27;;
10116;SDS011;5098;48.792;9.012;2023-04-24T07:50:34;1.77;;;1.53;;
10116;SDS011;5098;48.792;9.012;2023-04-24T07:53:01;2.73;;;1.17;;
10116;SDS011;5098;48.792;9.012;2023-04-24T07:55:27;1.60;;;1.20;;
10116;SDS011;5098;48.792;9.012;2023-04-24T07:57:53;1.80;;;1.53;;
10116;SDS011;5098;48.792;9.012;2023-04-24T08:00:19;1.57;;;1.47;;
10116;SDS011;5098;48.792;9.012;2023-04-24T08:02:45;1.87;;;1.40;;
10116;SDS011;5098;48.792;9.012;2023-04-24T08:05:11;1.23;;;1.10;;
10116;SDS011;5098;48.792;9.012;2023-04-24T08:07:38;3.00;;;1.43;;
10116;SDS011;5098;48.792;9.012;2023-04-24T08:10:04;1.13;;;1.00;;
10116;SDS011;5098;48.792;9.012;2023-04-24T08:12:31;3.03;;;1.40;;
10116;SDS011;5098;48.792;9.012;2023-04-24T08:14:57;2.17;;;1.40;;
10116;SDS011;5098;48.792;9.012;2023-04-24T08:17:23;1.70;;;1.47;;
10116;SDS011;5098;48.792;9.012;2023-04-24T08:19:50;1.37;;;1.20;;
10116;SDS011;5098;48.792;9.012;2023-04-24T08:22:18;2.50;;;1.77;;
10116;SDS011;5098;48.792;9.012;2023-04-24T08:24:44;2.30;;;1.70;;
10116;SDS011;5098;48.792;9.012;2023-04-24T08:27:10;1.60;;;1.43;;
10116;SDS011;5098;48.792;9.012;2023-04-24T08:29:36;1.40;;;1.30;;
10116;SDS011;5098;48.792;9.012;2023-04-24T08:32:02;2.60;;;1.70;;
10116;SDS011;5098;48.792;9.012;2023-04-24T08:34:28;1.80;;;1.70;;
10116;SDS011;5098;48.792;9.012;2023-04-24T08:36:54;3.17;;;1.90;;
10116;SDS011;5098;48.792;9.012;2023-04-24T08:39:21;2.03;;;1.07;;
10116;SDS011;5098;48.792;9.012;2023-04-24T08:41:47;2.27;;;2.07;;
10116;SDS011;5098;48.792;9.012;2023-04-24T08:44:14;1.60;;;1.30;;
10116;SDS011;5098;48.792;9.012;2023-04-24T08:46:42;1.83;;;1.60;;
10116;SDS011;5098;48.792;9.012;2023-04-24T08:49:10;2.20;;;1.40;;
10116;SDS011;5098;48.792;9.012;2023-04-24T08:51:36;3.03;;;1.50;;
10116;SDS011;5098;48.792;9.012;2023-04-24T08:54:03;4.90;;;1.73;;
10116;SDS011;5098;48.792;9.012;2023-04-24T08:56:30;1.70;;;1.53;;
10116;SDS011;5098;48.792;9.012;2023-04-24T08:58:59;4.00;;;3.60;;
10116;SDS011;5098;48.792;9.012;2023-04-24T09:01:25;2.70;;;1.80;;
10116;SDS011;5098;48.792;9.012;2023-04-24T09:03:52;3.93;;;1.57;;
10116;SDS011;5098;48.792;9.012;2023-04-24T09:06:19;3.93;;;1.70;;
10116;SDS011;5098;48.792;9.012;2023-04-24T09:08:45;2.00;;;1.67;;
10116;SDS011;5098;48.792;9.012;2023-04-24T09:11:11;1.67;;;1.20;;
10116;SDS011;5098;48.792;9.012;2023-04-24T09:13:37;2.30;;;1.50;;
10116;SDS011;5098;48.792;9.012;2023-04-24T09:16:03;2.43;;;1.50;;
10116;SDS011;5098;48.792;9.012;2023-04-24T09:18:29;1.20;;;1.10;;
10116;SDS011;5098;48.792;9.012;2023-04-24T09:21:07;2.00;;;1.80;;
10116;SDS011;5098;48.792;9.012;2023-04-24T09:23:33;4.80;;;1.80;;
10116;SDS011;5098;48.792;9.012;2023-04-24T09:26:00;6.30;;;1.67;;
10116;SDS011;5098;48.792;9.012;2023-04-24T09:28:29;1.77;;;1.67;;
10116;SDS011;5098;48.792;9.012;2023-04-24T09:31:14;2.20;;;1.50;;
10116;SDS011;5098;48.792;9.012;2023-04-24T09:33:55;1.80;;;1.57;;
10116;SDS011;5098;48.792;9.012;2023-04-24T09:36:29;2.03;;;1.83;;
10116;SDS011;5098;48.792;9.012;2023-04-24T09:39:00;3.77;;;1.60;;
10116;SDS011;5098;48.792;9.012;2023-04-24T09:41:26;1.47;;;1.37;;
10116;SDS011;5098;48.792;9.012;2023-04-24T09:43:54;2.43;;;1.90;;
10116;SDS011;5098;48.792;9.012;2023-04-24T09:46:20;1.73;;;1.63;;
10116;SDS011;5098;48.792;9.012;2023-04-24T09:48:47;1.60;;;1.50;;
10116;SDS011;5098;48.792;9.012;2023-04-24T09:51:13;3.30;;;2.43;;
10116;SDS011;5098;48.792;9.012;2023-04-24T09:53:44;2.40;;;1.30;;
10116;SDS011;5098;48.792;9.012;2023-04-24T09:56:11;1.27;;;1.17;;
10116;SDS011;5098;48.792;9.012;2023-04-24T09:58:40;1.30;;;1.20;;
10116;SDS011;5098;48.792;9.012;2023-04-24T10:01:06;2.20;;;1.43;;
10116;SDS011;5098;48.792;9.012;2023-04-24T10:03:33;1.57;;;1.47;;
10116;SDS011;5098;48.792;9.012;2023-04-24T10:06:00;4.17;;;1.60;;
10116;SDS011;5098;48.792;9.012;2023-04-24T10:08:26;3.70;;;1.13;;
10116;SDS011;5098;48.792;9.012;2023-04-24T10:10:52;2.60;;;1.30;;
10116;SDS011;5098;48.792;9.012;2023-04-24T10:13:18;1.40;;;1.30;;
10116;SDS011;5098;48.792;9.012;2023-04-24T10:15:45;3.67;;;1.07;;
10116;SDS011;5098;48.792;9.012;2023-04-24T10:18:13;1.40;;;1.10;;
10116;SDS011;5098;48.792;9.012;2023-04-24T10:20:39;3.13;;;1.20;;
10116;SDS011;5098;48.792;9.012;2023-04-24T10:23:06;1.77;;;1.30;;
10116;SDS011;5098;48.792;9.012;2023-04-24T10:25:33;2.10;;;1.30;;
10116;SDS011;5098;48.792;9.012;2023-04-24T10:28:00;1.67;;;1.57;;
10116;SDS011;5098;48.792;9.012;2023-04-24T10:30:27;4.10;;;1.60;;
10116;SDS011;5098;48.792;9.012;2023-04-24T10:32:53;2.77;;;1.30;;
10116;SDS011;5098;48.792;9.012;2023-04-24T10:35:20;2.77;;;1.20;;
10116;SDS011;5098;48.792;9.012;2023-04-24T10:37:50;1.20;;;1.10;;
10116;SDS011;5098;48.792;9.012;2023-04-24T10:40:24;2.90;;;1.50;;
10116;SDS011;5098;48.792;9.012;2023-04-24T10:42:51;1.30;;;0.90;;
10116;SDS011;5098;48.792;9.012;2023-04-24T10:45:21;4.30;;;1.30;;
10116;SDS011;5098;48.792;9.012;2023-04-24T10:47:51;2.23;;;1.40;;
10116;SDS011;5098;48.792;9.012;2023-04-24T10:50:17;1.30;;;0.90;;
10116;SDS011;5098;48.792;9.012;2023-04-24T10:52:43;1.30;;;1.20;;
10116;SDS011;5098;48.792;9.012;2023-04-24T10:55:10;1.40;;;1.10;;
10116;SDS011;5098;48.792;9.012;2023-04-24T10:57:38;1.67;;;1.33;;
10116;SDS011;5098;48.792;9.012;2023-04-24T11:00:20;1.37;;;1.27;;
10116;SDS011;5098;48.792;9.012;2023-04-24T11:02:47;1.67;;;1.27;;
10116;SDS011;5098;48.792;9.012;2023-04-24T11:05:15;1.20;;;1.10;;
10116;SDS011;5098;48.792;9.012;2023-04-24T11:10:27;2.20;;;1.50;;
10116;SDS011;5098;48.792;9.012;2023-04-24T11:12:53;2.53;;;1.30;;
10116;SDS011;5098;48.792;9.012;2023-04-24T11:15:19;2.10;;;1.90;;
10116;SDS011;5098;48.792;9.012;2023-04-24T11:17:46;1.70;;;1.50;;
10116;SDS011;5098;48.792;9.012;2023-04-24T11:20:17;1.50;;;1.00;;
10116;SDS011;5098;48.792;9.012;2023-04-24T11:22:43;2.17;;;1.50;;
10116;SDS011;5098;48.792;9.012;2023-04-24T11:25:09;1.97;;;1.27;;
10116;SDS011;5098;48.792;9.012;2023-04-24T11:27:43;2.07;;;1.60;;
10116;SDS011;5098;48.792;9.012;2023-04-24T11:30:11;2.13;;;1.73;;
10116;SDS011;5098;48.792;9.012;2023-04-24T11:37:39;2.03;;;1.70;;
10116;SDS011;5098;48.792;9.012;2023-04-24T11:40:07;2.00;;;1.50;;
10116;SDS011;5098;48.792;9.012;2023-04-24T11:42:40;1.63;;;1.53;;
10116;SDS011;5098;48.792;9.012;2023-04-24T11:45:07;1.50;;;1.33;;
10116;SDS011;5098;48.792;9.012;2023-04-24T11:47:34;2.00;;;1.20;;
10116;SDS011;5098;48.792;9.012;2023-04-24T11:50:00;2.60;;;1.50;;
10116;SDS011;5098;48.792;9.012;2023-04-24T11:52:27;2.47;;;1.73;;
10116;SDS011;5098;48.792;9.012;2023-04-24T11:54:53;3.33;;;1.50;;
10116;SDS011;5098;48.792;9.012;2023-04-24T11:57:20;4.63;;;2.03;;
10116;SDS011;5098;48.792;9.012;2023-04-24T11:59:46;3.20;;;1.60;;
10116;SDS011;5098;48.792;9.012;2023-04-24T12:02:22;5.13;;;1.73;;
10116;SDS011;5098;48.792;9.012;2023-04-24T12:04:48;2.27;;;1.73;;
10116;SDS011;5098;48.792;9.012;2023-04-24T12:07:14;1.43;;;1.33;;
10116;SDS011;5098;48.792;9.012;2023-04-24T12:09:45;1.40;;;1.17;;
10116;SDS011;5098;48.792;9.012;2023-04-24T12:12:12;2.03;;;1.70;;
10116;SDS011;5098;48.792;9.012;2023-04-24T12:14:45;2.50;;;1.37;;
10116;SDS011;5098;48.792;9.012;2023-04-24T12:17:13;1.53;;;1.40;;
10116;SDS011;5098;48.792;9.012;2023-04-24T12:19:44;1.83;;;1.30;;
10116;SDS011;5098;48.792;9.012;2023-04-24T12:22:10;2.33;;;1.47;;
10116;SDS011;5098;48.792;9.012;2023-04-24T12:24:54;2.60;;;1.60;;
10116;SDS011;5098;48.792;9.012;2023-04-24T12:27:21;1.90;;;1.80;;
10116;SDS011;5098;48.792;9.012;2023-04-24T12:29:51;1.40;;;1.30;;
10116;SDS011;5098;48.792;9.012;2023-04-24T12:32:18;2.33;;;1.60;;
10116;SDS011;5098;48.792;9.012;2023-04-24T12:34:44;1.40;;;1.30;;
10116;SDS011;5098;48.792;9.012;2023-04-24T12:37:11;3.87;;;2.00;;
10116;SDS011;5098;48.792;9.012;2023-04-24T12:39:37;5.00;;;3.00;;
10116;SDS011;5098;48.792;9.012;2023-04-24T12:42:04;2.80;;;1.53;;
10116;SDS011;5098;48.792;9.012;2023-04-24T12:44:31;1.70;;;1.30;;
10116;SDS011;5098;48.792;9.012;2023-04-24T12:46:59;5.60;;;1.83;;
10116;SDS011;5098;48.792;9.012;2023-04-24T12:49:25;1.30;;;1.10;;
10116;SDS011;5098;48.792;9.012;2023-04-24T12:51:51;1.47;;;1.30;;
10116;SDS011;5098;48.792;9.012;2023-04-24T12:54:17;2.33;;;1.70;;
10116;SDS011;5098;48.792;9.012;2023-04-24T12:56:43;2.53;;;2.27;;
10116;SDS011;5098;48.792;9.012;2023-04-24T12:59:09;1.70;;;1.60;;
10116;SDS011;5098;48.792;9.012;2023-04-24T13:01:35;1.73;;;1.63;;
10116;SDS011;5098;48.792;9.012;2023-04-24T13:04:01;1.50;;;1.40;;
10116;SDS011;5098;48.792;9.012;2023-04-24T13:06:28;2.90;;;1.80;;
10116;SDS011;5098;48.792;9.012;2023-04-24T13:08:54;2.10;;;1.60;;
10116;SDS011;5098;48.792;9.012;2023-04-24T13:11:22;2.53;;;1.90;;
10116;SDS011;5098;48.792;9.012;2023-04-24T13:13:48;4.17;;;2.17;;
10116;SDS011;5098;48.792;9.012;2023-04-24T13:16:14;1.70;;;1.60;;
10116;SDS011;5098;48.792;9.012;2023-04-24T13:18:40;2.57;;;2.30;;
10116;SDS011;5098;48.792;9.012;2023-04-24T13:21:07;2.07;;;1.87;;
10116;SDS011;5098;48.792;9.012;2023-04-24T13:23:33;3.00;;;1.60;;
10116;SDS011;5098;48.792;9.012;2023-04-24T13:25:59;2.20;;;2.00;;
10116;SDS011;5098;48.792;9.012;2023-04-24T13:28:26;3.53;;;2.10;;
10116;SDS011;5098;48.792;9.012;2023-04-24T13:30:52;2.47;;;1.40;;
10116;SDS011;5098;48.792;9.012;2023-04-24T13:33:18;2.10;;;1.83;;
10116;SDS011;5098;48.792;9.012;2023-04-24T13:35:44;2.30;;;1.90;;
10116;SDS011;5098;48.792;9.012;2023-04-24T13:38:10;1.20;;;1.10;;
10116;SDS011;5098;48.792;9.012;2023-04-24T13:40:37;1.70;;;1.60;;
10116;SDS011;5098;48.792;9.012;2023-04-24T13:43:03;2.20;;;1.67;;
10116;SDS011;5098;48.792;9.012;2023-04-24T13:45:29;1.73;;;1.60;;
10116;SDS011;5098;48.792;9.012;2023-04-24T13:47:55;1.80;;;1.67;;
10116;SDS011;5098;48.792;9.012;2023-04-24T13:50:22;1.77;;;1.60;;
10116;SDS011;5098;48.792;9.012;2023-04-24T13:52:48;1.63;;;1.53;;
10116;SDS011;5098;48.792;9.012;2023-04-24T13:55:14;1.40;;;1.20;;
10116;SDS011;5098;48.792;9.012;2023-04-24T13:57:40;2.03;;;1.60;;
10116;SDS011;5098;48.792;9.012;2023-04-24T14:00:07;2.00;;;1.80;;
10116;SDS011;5098;48.792;9.012;2023-04-24T14:02:35;3.10;;;2.50;;
10116;SDS011;5098;48.792;9.012;2023-04-24T14:05:02;1.63;;;1.37;;
10116;SDS011;5098;48.792;9.012;2023-04-24T14:07:28;2.07;;;1.87;;
10116;SDS011;5098;48.792;9.012;2023-04-24T14:09:55;1.73;;;1.63;;
10116;SDS011;5098;48.792;9.012;2023-04-24T14:12:21;2.60;;;1.50;;
10116;SDS011;5098;48.792;9.012;2023-04-24T14:14:47;2.07;;;1.60;;
10116;SDS011;5098;48.792;9.012;2023-04-24T14:17:14;2.30;;;2.10;;
10116;SDS011;5098;48.792;9.012;2023-04-24T14:19:40;3.40;;;1.73;;
10116;SDS011;5098;48.792;9.012;2023-04-24T14:22:06;2.10;;;1.90;;
10116;SDS011;5098;48.792;9.012;2023-04-24T14:24:33;3.10;;;2.00;;
10116;SDS011;5098;48.792;9.012;2023-04-24T14:26:59;1.53;;;1.43;;
10116;SDS011;5098;48.792;9.012;2023-04-24T14:29:26;1.60;;;1.50;;
10116;SDS011;5098;48.792;9.012;2023-04-24T14:31:52;1.70;;;1.50;;
10116;SDS011;5098;48.792;9.012;2023-04-24T14:34:18;2.00;;;1.80;;
10116;SDS011;5098;48.792;9.012;2023-04-24T14:36:44;1.40;;;1.30;;
10116;SDS011;5098;48.792;9.012;2023-04-24T14:39:10;2.40;;;1.70;;
10116;SDS011;5098;48.792;9.012;2023-04-24T14:41:37;2.50;;;1.53;;
10116;SDS011;5098;48.792;9.012;2023-04-24T14:44:04;2.80;;;1.93;;
10116;SDS011;5098;48.792;9.012;2023-04-24T14:46:30;2.63;;;1.90;;
10116;SDS011;5098;48.792;9.012;2023-04-24T14:48:57;2.60;;;2.13;;
10116;SDS011;5098;48.792;9.012;2023-04-24T14:51:23;3.00;;;1.90;;
10116;SDS011;5098;48.792;9.012;2023-04-24T14:53:50;5.03;;;1.93;;
10116;SDS011;5098;48.792;9.012;2023-04-24T14:56:16;3.10;;;1.97;;
10116;SDS011;5098;48.792;9.012;2023-04-24T14:58:42;2.00;;;1.60;;
10116;SDS011;5098;48.792;9.012;2023-04-24T15:01:08;2.40;;;2.20;;
10116;SDS011;5098;48.792;9.012;2023-04-24T15:03:35;3.00;;;1.80;;
10116;SDS011;5098;48.792;9.012;2023-04-24T15:06:01;4.57;;;2.10;;